createdAt,value
2017-02-09T00:00:18.057Z,0
2017-02-09T00:01:18.427Z,0
2017-02-09T00:02:18.020Z,0
2017-02-09T00:03:18.388Z,0
2017-02-09T00:04:17.986Z,0
2017-02-09T00:05:17.966Z,0
2017-02-09T00:06:18.338Z,0
2017-02-09T00:07:17.929Z,0
2017-02-09T00:08:17.531Z,0
2017-02-09T00:09:18.280Z,0
2017-02-09T00:10:18.264Z,0
2017-02-09T00:11:17.859Z,0
2017-02-09T00:12:18.229Z,0
2017-02-09T00:13:18.212Z,0
2017-02-09T00:14:17.807Z,0
2017-02-09T00:15:18.174Z,0
2017-02-09T00:16:18.158Z,0
2017-02-09T00:17:18.138Z,0
2017-02-09T00:18:18.121Z,0
2017-02-09T00:19:18.104Z,0
2017-02-09T00:20:17.703Z,0
2017-02-09T00:21:17.684Z,0
2017-02-09T00:22:18.050Z,0
2017-02-09T00:23:17.647Z,0
2017-02-09T00:24:18.018Z,0
2017-02-09T00:25:17.997Z,0
2017-02-09T00:26:17.981Z,0
2017-02-09T00:27:17.577Z,0
2017-02-09T00:28:17.559Z,0
2017-02-09T00:29:17.929Z,0
2017-02-09T00:30:17.531Z,0
2017-02-09T00:31:17.507Z,0
2017-02-09T00:32:17.875Z,0
2017-02-09T00:33:17.859Z,0
2017-02-09T00:34:17.069Z,0
2017-02-09T00:35:17.818Z,0
2017-02-09T00:36:17.417Z,0
2017-02-09T00:37:17.788Z,0
2017-02-09T00:38:17.773Z,0
2017-02-09T00:39:17.364Z,0
2017-02-09T00:40:17.741Z,0
2017-02-09T00:41:17.720Z,0
2017-02-09T00:42:17.695Z,0
2017-02-09T00:43:17.294Z,0
2017-02-09T00:44:17.669Z,0
2017-02-09T00:45:17.255Z,0
2017-02-09T00:46:17.239Z,0
2017-02-09T00:47:17.614Z,0
2017-02-09T00:48:16.821Z,0
2017-02-09T00:49:17.573Z,0
2017-02-09T00:50:17.557Z,0
2017-02-09T00:51:17.152Z,0
2017-02-09T00:52:17.134Z,0
2017-02-09T00:53:17.503Z,0
2017-02-09T00:54:17.101Z,0
2017-02-09T00:55:17.082Z,0
2017-02-09T00:56:17.452Z,0
2017-02-09T00:57:17.435Z,0
2017-02-09T00:58:17.033Z,0
2017-02-09T00:59:17.398Z,0
2017-02-09T01:00:17.382Z,0
2017-02-09T01:01:16.980Z,0
2017-02-09T01:02:17.346Z,0
2017-02-09T01:03:17.333Z,0
2017-02-09T01:04:16.925Z,0
2017-02-09T01:05:16.908Z,0
2017-02-09T01:06:17.283Z,0
2017-02-09T01:07:16.872Z,0
2017-02-09T01:08:17.241Z,0
2017-02-09T01:09:17.224Z,0
2017-02-09T01:10:16.821Z,0
2017-02-09T01:11:17.188Z,0
2017-02-09T01:12:16.786Z,0
2017-02-09T01:13:16.766Z,0
2017-02-09T01:14:17.133Z,0
2017-02-09T01:15:17.118Z,0
2017-02-09T01:16:17.101Z,0
2017-02-09T01:17:17.082Z,0
2017-02-09T01:18:16.678Z,0
2017-02-09T01:19:17.070Z,0
2017-02-09T01:20:17.028Z,0
2017-02-09T01:21:17.011Z,0
2017-02-09T01:22:16.605Z,0
2017-02-09T01:23:16.974Z,0
2017-02-09T01:24:16.957Z,0
2017-02-09T01:25:16.942Z,0
2017-02-09T01:26:16.920Z,0
2017-02-09T01:27:16.903Z,0
2017-02-09T01:28:16.885Z,0
2017-02-09T01:29:16.480Z,0
2017-02-09T01:30:16.849Z,0
2017-02-09T01:31:16.827Z,0
2017-02-09T01:32:16.818Z,0
2017-02-09T01:33:16.800Z,0
2017-02-09T01:34:16.007Z,0
2017-02-09T01:35:16.762Z,0
2017-02-09T01:36:16.746Z,0
2017-02-09T01:37:16.724Z,0
2017-02-09T01:38:16.320Z,0
2017-02-09T01:39:16.692Z,0
2017-02-09T01:40:16.290Z,0
2017-02-09T01:41:16.652Z,0
2017-02-09T01:42:16.252Z,0
2017-02-09T01:43:16.620Z,0
2017-02-09T01:44:16.214Z,0
2017-02-09T01:45:16.582Z,0
2017-02-09T01:46:16.180Z,0
2017-02-09T01:47:16.548Z,0
2017-02-09T01:48:16.144Z,0
2017-02-09T01:49:16.510Z,0
2017-02-09T01:50:16.109Z,0
2017-02-09T01:51:16.091Z,0
2017-02-09T01:52:16.459Z,0
2017-02-09T01:53:16.689Z,0
2017-02-09T01:54:16.428Z,0
2017-02-09T01:55:16.409Z,0
2017-02-09T01:56:16.000Z,0
2017-02-09T01:57:15.984Z,0
2017-02-09T01:58:15.972Z,0
2017-02-09T01:59:16.333Z,0
2017-02-09T02:00:15.930Z,0
2017-02-09T02:01:16.306Z,0
2017-02-09T02:02:16.297Z,0
2017-02-09T02:03:16.261Z,0
2017-02-09T02:04:15.856Z,0
2017-02-09T02:05:16.226Z,0
2017-02-09T02:06:16.207Z,0
2017-02-09T02:07:16.188Z,0
2017-02-09T02:08:16.173Z,0
2017-02-09T02:09:16.152Z,0
2017-02-09T02:10:16.136Z,0
2017-02-09T02:11:16.146Z,0
2017-02-09T02:12:15.713Z,0
2017-02-09T02:13:16.083Z,0
2017-02-09T02:14:16.063Z,0
2017-02-09T02:15:16.047Z,0
2017-02-09T02:16:16.028Z,0
2017-02-09T02:17:16.019Z,0
2017-02-09T02:18:15.989Z,0
2017-02-09T02:19:15.974Z,0
2017-02-09T02:20:15.968Z,0
2017-02-09T02:21:15.937Z,0
2017-02-09T02:22:15.533Z,0
2017-02-09T02:23:15.901Z,0
2017-02-09T02:24:15.884Z,0
2017-02-09T02:25:15.861Z,0
2017-02-09T02:26:15.848Z,0
2017-02-09T02:27:15.831Z,0
2017-02-09T02:28:15.421Z,0
2017-02-09T02:29:15.798Z,0
2017-02-09T02:30:15.785Z,0
2017-02-09T02:31:15.374Z,0
2017-02-09T02:32:15.744Z,0
2017-02-09T02:33:15.739Z,0
2017-02-09T02:34:15.326Z,0
2017-02-09T02:35:15.690Z,0
2017-02-09T02:36:15.669Z,0
2017-02-09T02:37:15.264Z,0
2017-02-09T02:38:15.635Z,0
2017-02-09T02:39:15.614Z,0
2017-02-09T02:40:15.600Z,0
2017-02-09T02:41:15.577Z,0
2017-02-09T02:42:15.563Z,0
2017-02-09T02:43:15.158Z,0
2017-02-09T02:44:15.135Z,0
2017-02-09T02:45:15.506Z,0
2017-02-09T02:46:15.101Z,0
2017-02-09T02:47:15.085Z,0
2017-02-09T02:48:15.451Z,0
2017-02-09T02:49:15.058Z,0
2017-02-09T02:50:15.412Z,0
2017-02-09T02:51:15.398Z,0
2017-02-09T02:52:15.386Z,0
2017-02-09T02:53:15.365Z,0
2017-02-09T02:54:15.344Z,0
2017-02-09T02:55:15.330Z,0
2017-02-09T02:56:14.922Z,0
2017-02-09T02:57:15.294Z,0
2017-02-09T02:58:14.501Z,0
2017-02-09T02:59:15.258Z,0
2017-02-09T03:00:15.235Z,0
2017-02-09T03:01:14.833Z,0
2017-02-09T03:02:14.819Z,0
2017-02-09T03:03:15.187Z,0
2017-02-09T03:04:15.168Z,0
2017-02-09T03:05:14.757Z,0
2017-02-09T03:06:15.128Z,0
2017-02-09T03:07:15.158Z,0
2017-02-09T03:08:14.315Z,0
2017-02-09T03:09:15.077Z,0
2017-02-09T03:10:15.061Z,0
2017-02-09T03:11:14.654Z,0
2017-02-09T03:12:15.020Z,0
2017-02-09T03:13:15.003Z,0
2017-02-09T03:14:14.596Z,0
2017-02-09T03:15:14.963Z,0
2017-02-09T03:16:14.566Z,0
2017-02-09T03:17:14.546Z,0
2017-02-09T03:18:14.915Z,0
2017-02-09T03:19:14.893Z,0
2017-02-09T03:20:14.103Z,0
2017-02-09T03:21:14.858Z,0
2017-02-09T03:22:14.839Z,0
2017-02-09T03:23:14.433Z,0
2017-02-09T03:24:14.804Z,0
2017-02-09T03:25:14.786Z,0
2017-02-09T03:26:14.768Z,0
2017-02-09T03:27:14.756Z,0
2017-02-09T03:28:14.347Z,0
2017-02-09T03:29:14.717Z,0
2017-02-09T03:30:14.695Z,0
2017-02-09T03:31:14.682Z,0
2017-02-09T03:32:14.678Z,0
2017-02-09T03:33:14.642Z,0
2017-02-09T03:34:14.633Z,0
2017-02-09T03:35:14.613Z,0
2017-02-09T03:36:14.201Z,0
2017-02-09T03:37:14.570Z,0
2017-02-09T03:38:14.555Z,0
2017-02-09T03:39:14.534Z,0
2017-02-09T03:40:14.522Z,0
2017-02-09T03:41:14.503Z,0
2017-02-09T03:42:14.102Z,0
2017-02-09T03:43:14.464Z,0
2017-02-09T03:44:14.060Z,0
2017-02-09T03:45:14.433Z,0
2017-02-09T03:46:14.023Z,0
2017-02-09T03:47:14.396Z,0
2017-02-09T03:48:13.989Z,0
2017-02-09T03:49:14.359Z,0
2017-02-09T03:50:14.341Z,0
2017-02-09T03:51:14.324Z,0
2017-02-09T03:52:14.304Z,0
2017-02-09T03:53:14.313Z,0
2017-02-09T03:54:13.882Z,0
2017-02-09T03:55:14.248Z,0
2017-02-09T03:56:14.233Z,0
2017-02-09T03:57:14.219Z,0
2017-02-09T03:58:14.198Z,0
2017-02-09T03:59:14.179Z,0
2017-02-09T04:00:13.396Z,0
2017-02-09T04:01:14.143Z,0
2017-02-09T04:02:13.739Z,0
2017-02-09T04:03:14.144Z,0
2017-02-09T04:04:13.702Z,0
2017-02-09T04:05:14.073Z,0
2017-02-09T04:06:14.052Z,0
2017-02-09T04:07:14.033Z,0
2017-02-09T04:08:13.633Z,0
2017-02-09T04:09:14.004Z,0
2017-02-09T04:10:13.980Z,0
2017-02-09T04:11:13.964Z,0
2017-02-09T04:12:13.946Z,0
2017-02-09T04:13:13.933Z,0
2017-02-09T04:14:13.917Z,0
2017-02-09T04:15:14.240Z,0
2017-02-09T04:16:13.875Z,0
2017-02-09T04:17:13.857Z,0
2017-02-09T04:18:13.836Z,0
2017-02-09T04:19:13.821Z,0
2017-02-09T04:20:13.803Z,0
2017-02-09T04:21:13.784Z,0
2017-02-09T04:22:13.773Z,0
2017-02-09T04:23:13.746Z,0
2017-02-09T04:24:13.733Z,0
2017-02-09T04:25:13.326Z,0
2017-02-09T04:26:13.307Z,0
2017-02-09T04:27:13.687Z,0
2017-02-09T04:28:13.665Z,0
2017-02-09T04:29:13.639Z,0
2017-02-09T04:30:13.624Z,0
2017-02-09T04:31:13.608Z,0
2017-02-09T04:32:13.202Z,0
2017-02-09T04:33:13.568Z,0
2017-02-09T04:34:13.550Z,0
2017-02-09T04:35:13.537Z,0
2017-02-09T04:36:13.131Z,0
2017-02-09T04:37:13.496Z,0
2017-02-09T04:38:13.483Z,0
2017-02-09T04:39:13.459Z,0
2017-02-09T04:40:13.442Z,0
2017-02-09T04:41:13.433Z,0
2017-02-09T04:42:13.407Z,0
2017-02-09T04:43:13.391Z,0
2017-02-09T04:44:12.983Z,0
2017-02-09T04:45:13.355Z,0
2017-02-09T04:46:13.336Z,0
2017-02-09T04:47:13.321Z,0
2017-02-09T04:48:13.299Z,0
2017-02-09T04:49:13.282Z,0
2017-02-09T04:50:13.270Z,0
2017-02-09T04:51:13.245Z,0
2017-02-09T04:52:13.229Z,0
2017-02-09T04:53:12.824Z,0
2017-02-09T04:54:12.804Z,0
2017-02-09T04:55:13.204Z,0
2017-02-09T04:56:12.381Z,0
2017-02-09T04:57:12.754Z,0
2017-02-09T04:58:13.119Z,0
2017-02-09T04:59:12.716Z,0
2017-02-09T05:00:12.700Z,0
2017-02-09T05:01:12.685Z,0
2017-02-09T05:02:13.049Z,0
2017-02-09T05:03:12.643Z,0
2017-02-09T05:04:13.013Z,0
2017-02-09T05:05:12.610Z,0
2017-02-09T05:06:12.590Z,0
2017-02-09T05:07:12.963Z,0
2017-02-09T05:08:12.941Z,0
2017-02-09T05:09:12.535Z,0
2017-02-09T05:10:12.911Z,0
2017-02-09T05:11:12.889Z,0
2017-02-09T05:12:12.097Z,0
2017-02-09T05:13:12.923Z,0
2017-02-09T05:14:12.063Z,0
2017-02-09T05:15:12.823Z,0
2017-02-09T05:16:12.804Z,0
2017-02-09T05:17:12.789Z,0
2017-02-09T05:18:12.769Z,0
2017-02-09T05:19:12.361Z,0
2017-02-09T05:20:12.733Z,0
2017-02-09T05:21:12.322Z,0
2017-02-09T05:22:12.690Z,0
2017-02-09T05:23:12.671Z,0
2017-02-09T05:24:12.269Z,0
2017-02-09T05:25:12.642Z,0
2017-02-09T05:26:12.626Z,0
2017-02-09T05:27:12.216Z,0
2017-02-09T05:28:12.584Z,0
2017-02-09T05:29:12.569Z,0
2017-02-09T05:30:11.774Z,0
2017-02-09T05:31:12.527Z,0
2017-02-09T05:32:12.513Z,0
2017-02-09T05:33:12.493Z,0
2017-02-09T05:34:12.476Z,0
2017-02-09T05:35:12.493Z,0
2017-02-09T05:36:11.669Z,0
2017-02-09T05:37:12.424Z,0
2017-02-09T05:38:12.018Z,0
2017-02-09T05:39:12.385Z,0
2017-02-09T05:40:11.983Z,0
2017-02-09T05:41:12.347Z,0
2017-02-09T05:42:11.556Z,0
2017-02-09T05:43:12.315Z,0
2017-02-09T05:44:12.295Z,0
2017-02-09T05:45:11.891Z,0
2017-02-09T05:46:11.873Z,0
2017-02-09T05:47:12.242Z,0
2017-02-09T05:48:12.225Z,0
2017-02-09T05:49:12.205Z,0
2017-02-09T05:50:12.188Z,0
2017-02-09T05:51:12.181Z,0
2017-02-09T05:52:12.155Z,0
2017-02-09T05:53:12.133Z,0
2017-02-09T05:54:12.118Z,0
2017-02-09T05:55:12.097Z,0
2017-02-09T05:56:12.080Z,0
2017-02-09T05:57:11.672Z,0
2017-02-09T05:58:12.045Z,0
2017-02-09T05:59:12.029Z,0
2017-02-09T06:00:12.013Z,0
2017-02-09T06:01:11.992Z,0
2017-02-09T06:02:11.970Z,0
2017-02-09T06:03:11.954Z,0
2017-02-09T06:04:11.931Z,0
2017-02-09T06:05:11.919Z,0
2017-02-09T06:06:11.513Z,0
2017-02-09T06:07:11.880Z,0
2017-02-09T06:08:11.864Z,0
2017-02-09T06:09:11.848Z,0
2017-02-09T06:10:11.827Z,0
2017-02-09T06:11:11.809Z,0
2017-02-09T06:12:11.800Z,0
2017-02-09T06:13:11.774Z,0
2017-02-09T06:14:11.754Z,0
2017-02-09T06:15:11.738Z,0
2017-02-09T06:16:11.723Z,0
2017-02-09T06:17:11.704Z,0
2017-02-09T06:18:11.297Z,0
2017-02-09T06:19:11.665Z,0
2017-02-09T06:20:11.650Z,0
2017-02-09T06:21:11.626Z,0
2017-02-09T06:22:11.612Z,0
2017-02-09T06:23:11.594Z,0
2017-02-09T06:24:11.573Z,0
2017-02-09T06:25:11.176Z,0
2017-02-09T06:26:11.536Z,0
2017-02-09T06:27:11.522Z,0
2017-02-09T06:28:11.505Z,0
2017-02-09T06:29:11.491Z,0
2017-02-09T06:30:11.081Z,5
2017-02-09T06:31:11.452Z,5
2017-02-09T06:32:11.433Z,5
2017-02-09T06:33:11.416Z,5
2017-02-09T06:34:11.009Z,5
2017-02-09T06:35:11.383Z,5
2017-02-09T06:36:11.358Z,5
2017-02-09T06:37:11.348Z,5
2017-02-09T06:38:11.326Z,5
2017-02-09T06:39:11.309Z,10
2017-02-09T06:40:11.288Z,10
2017-02-09T06:41:11.274Z,10
2017-02-09T06:42:10.480Z,10
2017-02-09T06:43:11.233Z,10
2017-02-09T06:44:11.220Z,15
2017-02-09T06:45:11.205Z,15
2017-02-09T06:46:11.185Z,15
2017-02-09T06:47:10.775Z,15
2017-02-09T06:48:11.150Z,15
2017-02-09T06:49:11.129Z,15
2017-02-09T06:50:10.335Z,20
2017-02-09T06:51:11.091Z,20
2017-02-09T06:52:11.073Z,20
2017-02-09T06:53:11.055Z,20
2017-02-09T06:54:11.035Z,20
2017-02-09T06:55:11.050Z,20
2017-02-09T06:56:11.001Z,25
2017-02-09T06:57:10.601Z,25
2017-02-09T06:58:10.961Z,25
2017-02-09T06:59:10.950Z,30
2017-02-09T07:00:10.154Z,30
2017-02-09T07:01:10.917Z,30
2017-02-09T07:02:10.504Z,30
2017-02-09T07:03:10.882Z,35
2017-02-09T07:04:10.856Z,35
2017-02-09T07:05:10.449Z,35
2017-02-09T07:06:10.824Z,35
2017-02-09T07:07:10.801Z,40
2017-02-09T07:08:10.009Z,40
2017-02-09T07:09:10.767Z,40
2017-02-09T07:10:10.748Z,40
2017-02-09T07:11:09.959Z,40
2017-02-09T07:12:10.713Z,40
2017-02-09T07:13:10.698Z,45
2017-02-09T07:14:10.292Z,45
2017-02-09T07:15:10.662Z,50
2017-02-09T07:16:09.894Z,50
2017-02-09T07:17:10.625Z,50
2017-02-09T07:18:10.222Z,55
2017-02-09T07:19:10.588Z,55
2017-02-09T07:20:09.794Z,55
2017-02-09T07:21:10.555Z,60
2017-02-09T07:22:10.537Z,60
2017-02-09T07:23:10.514Z,60
2017-02-09T07:24:10.499Z,65
2017-02-09T07:25:09.705Z,65
2017-02-09T07:26:10.461Z,65
2017-02-09T07:27:10.064Z,65
2017-02-09T07:28:10.428Z,65
2017-02-09T07:29:10.020Z,65
2017-02-09T07:30:09.617Z,65
2017-02-09T07:31:10.371Z,70
2017-02-09T07:32:09.969Z,70
2017-02-09T07:33:10.338Z,75
2017-02-09T07:34:09.936Z,75
2017-02-09T07:35:09.918Z,75
2017-02-09T07:36:09.897Z,75
2017-02-09T07:37:10.273Z,80
2017-02-09T07:38:10.250Z,80
2017-02-09T07:39:09.847Z,80
2017-02-09T07:40:09.450Z,85
2017-02-09T07:41:09.809Z,85
2017-02-09T07:42:10.183Z,85
2017-02-09T07:43:09.777Z,90
2017-02-09T07:44:10.146Z,90
2017-02-09T07:45:09.357Z,95
2017-02-09T07:46:09.721Z,95
2017-02-09T07:47:09.319Z,100
2017-02-09T07:48:09.689Z,100
2017-02-09T07:49:10.054Z,105
2017-02-09T07:50:10.039Z,105
2017-02-09T07:51:10.021Z,105
2017-02-09T07:52:10.005Z,110
2017-02-09T07:53:09.986Z,110
2017-02-09T07:54:09.968Z,110
2017-02-09T07:55:09.958Z,115
2017-02-09T07:56:09.935Z,115
2017-02-09T07:57:09.974Z,120
2017-02-09T07:58:09.900Z,120
2017-02-09T07:59:09.888Z,120
2017-02-09T08:00:09.863Z,120
2017-02-09T08:01:09.849Z,120
2017-02-09T08:02:09.836Z,120
2017-02-09T08:03:09.813Z,120
2017-02-09T08:04:09.795Z,120
2017-02-09T08:05:09.788Z,125
2017-02-09T08:06:09.762Z,125
2017-02-09T08:07:09.762Z,130
2017-02-09T08:08:08.973Z,135
2017-02-09T08:09:09.712Z,135
2017-02-09T08:10:09.312Z,140
2017-02-09T08:11:09.677Z,140
2017-02-09T08:12:09.995Z,140
2017-02-09T08:13:09.646Z,145
2017-02-09T08:14:09.630Z,145
2017-02-09T08:15:09.610Z,145
2017-02-09T08:16:09.625Z,145
2017-02-09T08:17:09.580Z,150
2017-02-09T08:18:09.171Z,150
2017-02-09T08:19:08.772Z,155
2017-02-09T08:20:09.150Z,155
2017-02-09T08:21:09.512Z,155
2017-02-09T08:22:09.494Z,155
2017-02-09T08:23:09.478Z,155
2017-02-09T08:24:09.473Z,160
2017-02-09T08:25:09.443Z,160
2017-02-09T08:26:08.661Z,165
2017-02-09T08:27:09.418Z,165
2017-02-09T08:28:09.395Z,165
2017-02-09T08:29:09.379Z,165
2017-02-09T08:30:09.009Z,170
2017-02-09T08:31:09.345Z,170
2017-02-09T08:32:08.940Z,170
2017-02-09T08:33:09.308Z,170
2017-02-09T08:34:09.298Z,170
2017-02-09T08:35:09.565Z,170
2017-02-09T08:36:08.492Z,170
2017-02-09T08:37:09.247Z,170
2017-02-09T08:38:09.229Z,175
2017-02-09T08:39:09.211Z,175
2017-02-09T08:40:09.193Z,175
2017-02-09T08:41:09.179Z,175
2017-02-09T08:42:09.161Z,180
2017-02-09T08:43:09.187Z,180
2017-02-09T08:44:09.135Z,180
2017-02-09T08:45:09.116Z,185
2017-02-09T08:46:08.715Z,185
2017-02-09T08:47:09.082Z,185
2017-02-09T08:48:08.699Z,185
2017-02-09T08:49:09.046Z,190
2017-02-09T08:50:09.030Z,195
2017-02-09T08:51:09.013Z,195
2017-02-09T08:52:08.611Z,195
2017-02-09T08:53:08.978Z,200
2017-02-09T08:54:08.577Z,205
2017-02-09T08:55:08.951Z,210
2017-02-09T08:56:08.929Z,215
2017-02-09T08:57:08.553Z,215
2017-02-09T08:58:08.900Z,220
2017-02-09T08:59:08.882Z,220
2017-02-09T09:00:08.866Z,225
2017-02-09T09:01:08.851Z,225
2017-02-09T09:02:08.838Z,220
2017-02-09T09:03:08.816Z,225
2017-02-09T09:04:08.801Z,225
2017-02-09T09:05:08.799Z,225
2017-02-09T09:06:08.768Z,230
2017-02-09T09:07:09.025Z,235
2017-02-09T09:08:08.738Z,235
2017-02-09T09:09:08.722Z,235
2017-02-09T09:10:08.319Z,235
2017-02-09T09:11:08.687Z,235
2017-02-09T09:12:07.907Z,240
2017-02-09T09:13:08.654Z,240
2017-02-09T09:14:08.644Z,240
2017-02-09T09:15:08.657Z,245
2017-02-09T09:16:08.619Z,245
2017-02-09T09:17:08.586Z,245
2017-02-09T09:18:08.586Z,245
2017-02-09T09:19:08.558Z,245
2017-02-09T09:20:08.549Z,250
2017-02-09T09:21:08.532Z,255
2017-02-09T09:22:08.128Z,260
2017-02-09T09:23:08.495Z,265
2017-02-09T09:24:08.480Z,270
2017-02-09T09:25:07.696Z,275
2017-02-09T09:26:08.446Z,285
2017-02-09T09:27:08.428Z,285
2017-02-09T09:28:08.044Z,295
2017-02-09T09:29:08.399Z,300
2017-02-09T09:30:07.995Z,305
2017-02-09T09:31:08.367Z,305
2017-02-09T09:32:08.351Z,300
2017-02-09T09:33:08.638Z,300
2017-02-09T09:34:08.323Z,295
2017-02-09T09:35:08.305Z,295
2017-02-09T09:36:08.287Z,295
2017-02-09T09:37:07.894Z,290
2017-02-09T09:38:08.263Z,290
2017-02-09T09:39:08.241Z,290
2017-02-09T09:40:08.225Z,290
2017-02-09T09:41:08.213Z,295
2017-02-09T09:42:07.808Z,295
2017-02-09T09:43:08.182Z,295
2017-02-09T09:44:07.785Z,295
2017-02-09T09:45:08.149Z,300
2017-02-09T09:46:08.136Z,300
2017-02-09T09:47:08.130Z,300
2017-02-09T09:48:07.719Z,300
2017-02-09T09:49:08.091Z,300
2017-02-09T09:50:08.080Z,300
2017-02-09T09:51:08.058Z,300
2017-02-09T09:52:08.044Z,300
2017-02-09T09:53:08.027Z,300
2017-02-09T09:54:08.019Z,300
2017-02-09T09:55:08.000Z,300
2017-02-09T09:56:07.985Z,305
2017-02-09T09:57:07.967Z,310
2017-02-09T09:58:07.951Z,310
2017-02-09T09:59:07.941Z,310
2017-02-09T10:00:07.925Z,310
2017-02-09T10:01:07.912Z,310
2017-02-09T10:02:07.893Z,310
2017-02-09T10:03:07.880Z,305
2017-02-09T10:04:07.867Z,310
2017-02-09T10:05:07.852Z,315
2017-02-09T10:06:07.832Z,320
2017-02-09T10:07:07.820Z,315
2017-02-09T10:08:07.805Z,315
2017-02-09T10:09:07.789Z,320
2017-02-09T10:10:07.384Z,325
2017-02-09T10:11:07.757Z,330
2017-02-09T10:12:07.746Z,325
2017-02-09T10:13:07.728Z,330
2017-02-09T10:14:07.719Z,335
2017-02-09T10:15:07.694Z,335
2017-02-09T10:16:07.297Z,340
2017-02-09T10:17:07.673Z,345
2017-02-09T10:18:07.652Z,355
2017-02-09T10:19:07.634Z,365
2017-02-09T10:20:07.625Z,360
2017-02-09T10:21:07.606Z,350
2017-02-09T10:22:07.591Z,345
2017-02-09T10:23:07.578Z,340
2017-02-09T10:24:07.562Z,340
2017-02-09T10:25:07.550Z,340
2017-02-09T10:26:07.533Z,340
2017-02-09T10:27:07.515Z,345
2017-02-09T10:28:07.507Z,350
2017-02-09T10:29:07.492Z,345
2017-02-09T10:30:07.473Z,345
2017-02-09T10:31:07.458Z,345
2017-02-09T10:32:07.448Z,345
2017-02-09T10:33:07.430Z,345
2017-02-09T10:34:07.422Z,350
2017-02-09T10:35:07.404Z,340
2017-02-09T10:36:07.427Z,345
2017-02-09T10:37:07.376Z,345
2017-02-09T10:38:07.367Z,345
2017-02-09T10:39:07.346Z,345
2017-02-09T10:40:07.334Z,345
2017-02-09T10:41:07.319Z,345
2017-02-09T10:42:07.303Z,345
2017-02-09T10:43:07.298Z,355
2017-02-09T10:44:06.892Z,350
2017-02-09T10:45:07.264Z,350
2017-02-09T10:46:07.248Z,345
2017-02-09T10:47:07.242Z,340
2017-02-09T10:48:07.221Z,340
2017-02-09T10:49:07.205Z,340
2017-02-09T10:50:07.198Z,340
2017-02-09T10:51:07.181Z,335
2017-02-09T10:52:07.199Z,330
2017-02-09T10:53:07.154Z,335
2017-02-09T10:54:07.142Z,320
2017-02-09T10:55:07.127Z,310
2017-02-09T10:56:07.113Z,315
2017-02-09T10:57:07.099Z,315
2017-02-09T10:58:07.100Z,310
2017-02-09T10:59:06.301Z,310
2017-02-09T11:00:07.060Z,315
2017-02-09T11:01:07.045Z,320
2017-02-09T11:02:07.035Z,320
2017-02-09T11:03:07.015Z,320
2017-02-09T11:04:06.621Z,320
2017-02-09T11:05:06.991Z,315
2017-02-09T11:06:06.986Z,315
2017-02-09T11:07:06.964Z,325
2017-02-09T11:08:06.568Z,335
2017-02-09T11:09:06.941Z,330
2017-02-09T11:10:06.922Z,320
2017-02-09T11:11:06.910Z,315
2017-02-09T11:12:06.895Z,315
2017-02-09T11:13:06.886Z,315
2017-02-09T11:14:06.866Z,305
2017-02-09T11:15:06.855Z,295
2017-02-09T11:16:06.454Z,295
2017-02-09T11:17:06.443Z,295
2017-02-09T11:18:06.427Z,290
2017-02-09T11:19:06.418Z,295
2017-02-09T11:20:06.405Z,310
2017-02-09T11:21:06.388Z,300
2017-02-09T11:22:06.376Z,300
2017-02-09T11:23:06.358Z,305
2017-02-09T11:24:06.358Z,310
2017-02-09T11:25:06.725Z,305
2017-02-09T11:26:06.702Z,305
2017-02-09T11:27:06.694Z,300
2017-02-09T11:28:06.291Z,300
2017-02-09T11:29:06.274Z,295
2017-02-09T11:30:06.277Z,300
2017-02-09T11:31:06.249Z,290
2017-02-09T11:32:06.252Z,290
2017-02-09T11:33:06.608Z,290
2017-02-09T11:34:06.595Z,280
2017-02-09T11:35:06.587Z,270
2017-02-09T11:36:06.567Z,265
2017-02-09T11:37:06.550Z,255
2017-02-09T11:38:06.536Z,250
2017-02-09T11:39:06.525Z,245
2017-02-09T11:40:06.510Z,200
2017-02-09T11:41:06.494Z,195
2017-02-09T11:42:06.480Z,190
2017-02-09T11:43:06.466Z,195
2017-02-09T11:44:06.472Z,190
2017-02-09T11:45:06.439Z,195
2017-02-09T11:46:06.429Z,190
2017-02-09T11:47:06.420Z,185
2017-02-09T11:48:06.396Z,180
2017-02-09T11:49:06.378Z,180
2017-02-09T11:50:06.369Z,175
2017-02-09T11:51:06.350Z,175
2017-02-09T11:52:06.337Z,170
2017-02-09T11:53:05.941Z,170
2017-02-09T11:54:06.317Z,170
2017-02-09T11:55:06.293Z,165
2017-02-09T11:56:06.288Z,165
2017-02-09T11:57:06.263Z,165
2017-02-09T11:58:06.252Z,170
2017-02-09T11:59:05.848Z,160
2017-02-09T12:00:06.222Z,160
2017-02-09T12:01:06.202Z,160
2017-02-09T12:02:05.804Z,160
2017-02-09T12:03:06.182Z,160
2017-02-09T12:04:06.159Z,160
2017-02-09T12:05:06.176Z,160
2017-02-09T12:06:06.129Z,160
2017-02-09T12:07:05.730Z,165
2017-02-09T12:08:06.103Z,160
2017-02-09T12:09:06.091Z,160
2017-02-09T12:10:06.069Z,160
2017-02-09T12:11:06.056Z,160
2017-02-09T12:12:06.042Z,160
2017-02-09T12:13:06.024Z,160
2017-02-09T12:14:06.358Z,160
2017-02-09T12:15:05.994Z,160
2017-02-09T12:16:05.982Z,160
2017-02-09T12:17:05.972Z,160
2017-02-09T12:18:05.945Z,160
2017-02-09T12:19:05.931Z,160
2017-02-09T12:20:05.917Z,160
2017-02-09T12:21:05.902Z,160
2017-02-09T12:22:05.889Z,160
2017-02-09T12:23:05.878Z,160
2017-02-09T12:24:05.853Z,160
2017-02-09T12:25:05.877Z,160
2017-02-09T12:26:05.827Z,160
2017-02-09T12:27:05.454Z,160
2017-02-09T12:28:05.796Z,160
2017-02-09T12:29:05.394Z,160
2017-02-09T12:30:05.761Z,160
2017-02-09T12:31:05.746Z,155
2017-02-09T12:32:05.732Z,155
2017-02-09T12:33:05.717Z,155
2017-02-09T12:34:05.701Z,155
2017-02-09T12:35:05.683Z,155
2017-02-09T12:36:05.670Z,155
2017-02-09T12:37:05.269Z,155
2017-02-09T12:38:05.636Z,155
2017-02-09T12:39:05.623Z,155
2017-02-09T12:40:05.608Z,155
2017-02-09T12:41:05.590Z,155
2017-02-09T12:42:05.576Z,155
2017-02-09T12:43:05.557Z,155
2017-02-09T12:44:05.547Z,155
2017-02-09T12:45:05.139Z,155
2017-02-09T12:46:05.513Z,155
2017-02-09T12:47:05.497Z,155
2017-02-09T12:48:05.488Z,155
2017-02-09T12:49:05.467Z,155
2017-02-09T12:50:05.067Z,155
2017-02-09T12:51:05.440Z,155
2017-02-09T12:52:05.416Z,150
2017-02-09T12:53:05.409Z,150
2017-02-09T12:54:05.440Z,150
2017-02-09T12:55:05.380Z,150
2017-02-09T12:56:05.358Z,150
2017-02-09T12:57:05.342Z,150
2017-02-09T12:58:05.326Z,150
2017-02-09T12:59:05.312Z,150
2017-02-09T13:00:04.909Z,150
2017-02-09T13:01:05.284Z,150
2017-02-09T13:02:05.261Z,150
2017-02-09T13:03:05.247Z,150
2017-02-09T13:04:05.237Z,150
2017-02-09T13:05:05.219Z,145
2017-02-09T13:06:05.202Z,145
2017-02-09T13:07:05.187Z,145
2017-02-09T13:08:05.179Z,145
2017-02-09T13:09:05.160Z,145
2017-02-09T13:10:05.137Z,145
2017-02-09T13:11:05.130Z,145
2017-02-09T13:12:05.109Z,145
2017-02-09T13:13:05.097Z,145
2017-02-09T13:14:05.085Z,145
2017-02-09T13:15:05.072Z,140
2017-02-09T13:16:05.044Z,140
2017-02-09T13:17:05.033Z,140
2017-02-09T13:18:05.017Z,140
2017-02-09T13:19:04.998Z,140
2017-02-09T13:20:04.984Z,140
2017-02-09T13:21:04.582Z,140
2017-02-09T13:22:04.959Z,145
2017-02-09T13:23:04.557Z,145
2017-02-09T13:24:04.538Z,145
2017-02-09T13:25:04.911Z,140
2017-02-09T13:26:04.898Z,140
2017-02-09T13:27:04.875Z,140
2017-02-09T13:28:04.863Z,140
2017-02-09T13:29:05.095Z,140
2017-02-09T13:30:04.441Z,140
2017-02-09T13:31:04.813Z,140
2017-02-09T13:32:04.410Z,140
2017-02-09T13:33:04.785Z,140
2017-02-09T13:34:04.767Z,140
2017-02-09T13:35:04.752Z,140
2017-02-09T13:36:04.356Z,140
2017-02-09T13:37:04.334Z,135
2017-02-09T13:38:04.316Z,135
2017-02-09T13:39:04.305Z,135
2017-02-09T13:40:04.289Z,135
2017-02-09T13:41:04.270Z,130
2017-02-09T13:42:04.642Z,130
2017-02-09T13:43:04.626Z,130
2017-02-09T13:44:04.611Z,130
2017-02-09T13:45:04.601Z,130
2017-02-09T13:46:04.581Z,130
2017-02-09T13:47:04.564Z,130
2017-02-09T13:48:04.550Z,130
2017-02-09T13:49:04.535Z,130
2017-02-09T13:50:04.518Z,130
2017-02-09T13:51:04.504Z,130
2017-02-09T13:52:04.104Z,135
2017-02-09T13:53:04.474Z,135
2017-02-09T13:54:04.458Z,130
2017-02-09T13:55:04.058Z,130
2017-02-09T13:56:04.427Z,125
2017-02-09T13:57:04.411Z,125
2017-02-09T13:58:04.406Z,125
2017-02-09T13:59:04.378Z,125
2017-02-09T14:00:04.365Z,125
2017-02-09T14:01:04.355Z,125
2017-02-09T14:02:04.336Z,125
2017-02-09T14:03:04.317Z,120
2017-02-09T14:04:04.302Z,115
2017-02-09T14:05:04.287Z,115
2017-02-09T14:06:04.272Z,115
2017-02-09T14:07:04.256Z,115
2017-02-09T14:08:04.240Z,120
2017-02-09T14:09:04.246Z,120
2017-02-09T14:10:04.261Z,120
2017-02-09T14:11:04.194Z,120
2017-02-09T14:12:04.179Z,120
2017-02-09T14:13:04.162Z,120
2017-02-09T14:14:03.759Z,125
2017-02-09T14:15:03.741Z,120